TimeMDT,TemperatureF,Dew PointF,Humidity,Sea Level PressureIn,VisibilityMPH,Wind Direction,Wind SpeedMPH,Gust SpeedMPH,PrecipitationIn,Events,Conditions,WindDirDegrees,DateUTC
12:14 AM,60.8,42.8,52,30.55,10.0,WSW,8.1,-,N/A,,Clear,250,2013-08-27 06:14:00
12:34 AM,60.8,42.8,52,30.55,10.0,WSW,4.6,-,N/A,,Clear,250,2013-08-27 06:34:00
12:54 AM,62.6,42.8,48,30.55,10.0,SW,3.5,-,N/A,,Clear,230,2013-08-27 06:54:00
1:14 AM,60.8,42.8,52,30.55,10.0,West,8.1,-,N/A,,Clear,270,2013-08-27 07:14:00
1:34 AM,60.8,42.8,52,30.55,10.0,West,5.8,-,N/A,,Clear,280,2013-08-27 07:34:00
1:54 AM,60.8,42.8,52,30.55,10.0,SSE,4.6,-,N/A,,Clear,160,2013-08-27 07:54:00
2:14 AM,60.8,42.8,52,30.54,10.0,Calm,Calm,-,N/A,,Clear,0,2013-08-27 08:14:00
2:34 AM,59.0,44.6,59,30.54,10.0,NW,3.5,-,N/A,,Clear,310,2013-08-27 08:34:00
2:54 AM,59.0,42.8,55,30.54,10.0,Calm,Calm,-,N/A,,Clear,0,2013-08-27 08:54:00
3:13 AM,59.0,44.6,59,30.54,10.0,WNW,4.6,-,N/A,,Scattered Clouds,290,2013-08-27 09:13:00
3:34 AM,59.0,44.6,59,30.54,10.0,West,4.6,-,N/A,,Mostly Cloudy,270,2013-08-27 09:34:00
3:54 AM,59.0,42.8,55,30.54,10.0,WNW,3.5,-,N/A,,Overcast,300,2013-08-27 09:54:00
4:14 AM,59.0,44.6,59,30.54,10.0,NW,3.5,-,N/A,,Overcast,310,2013-08-27 10:14:00
4:34 AM,59.0,42.8,55,30.54,10.0,NW,3.5,-,N/A,,Overcast,310,2013-08-27 10:34:00
4:54 AM,57.2,44.6,63,30.54,10.0,WNW,3.5,-,N/A,,Scattered Clouds,300,2013-08-27 10:54:00
5:14 AM,57.2,42.8,59,30.54,10.0,WNW,3.5,-,N/A,,Clear,300,2013-08-27 11:14:00
5:34 AM,57.2,42.8,59,30.54,10.0,Calm,Calm,-,N/A,,Clear,0,2013-08-27 11:34:00
5:54 AM,59.0,42.8,55,30.54,10.0,West,3.5,-,N/A,,Clear,280,2013-08-27 11:54:00
6:14 AM,59.0,41.0,51,30.54,10.0,Calm,Calm,-,N/A,,Clear,0,2013-08-27 12:14:00
6:34 AM,59.0,42.8,55,30.55,10.0,SE,3.5,-,N/A,,Clear,140,2013-08-27 12:34:00
6:54 AM,57.2,44.6,63,30.55,10.0,SSE,5.8,-,N/A,,Clear,150,2013-08-27 12:54:00
7:13 AM,59.0,44.6,59,30.56,10.0,South,4.6,-,N/A,,Clear,180,2013-08-27 13:13:00
7:34 AM,59.0,44.6,59,30.56,10.0,Calm,Calm,-,N/A,,Clear,0,2013-08-27 13:34:00
7:54 AM,59.0,42.8,55,30.56,10.0,West,3.5,-,N/A,,Clear,260,2013-08-27 13:54:00
8:14 AM,60.8,46.4,59,30.56,10.0,Calm,Calm,-,N/A,,Clear,0,2013-08-27 14:14:00
8:34 AM,60.8,44.6,55,30.56,10.0,Calm,Calm,-,N/A,,Clear,0,2013-08-27 14:34:00
8:54 AM,62.6,46.4,55,30.56,10.0,ESE,3.5,-,N/A,,Clear,110,2013-08-27 14:54:00
9:14 AM,62.6,46.4,55,30.56,10.0,SE,4.6,-,N/A,,Clear,130,2013-08-27 15:14:00
9:34 AM,62.6,46.4,55,30.56,10.0,Calm,Calm,-,N/A,,Clear,0,2013-08-27 15:34:00
9:53 AM,64.4,46.4,52,30.56,10.0,SE,4.6,-,N/A,,Clear,140,2013-08-27 15:53:00
10:14 AM,66.2,46.4,49,30.56,10.0,ESE,3.5,-,N/A,,Clear,120,2013-08-27 16:14:00
10:34 AM,69.8,46.4,43,30.56,10.0,ESE,3.5,-,N/A,,Clear,110,2013-08-27 16:34:00
10:54 AM,69.8,44.6,40,30.56,10.0,East,4.6,-,N/A,,Clear,100,2013-08-27 16:54:00
11:14 AM,69.8,42.8,38,30.56,10.0,ESE,5.8,-,N/A,,Clear,110,2013-08-27 17:14:00
11:34 AM,71.6,41.0,33,30.56,10.0,SSE,3.5,-,N/A,,Scattered Clouds,150,2013-08-27 17:34:00
11:54 AM,73.4,39.2,29,30.55,10.0,SE,4.6,-,N/A,,Clear,130,2013-08-27 17:54:00
12:14 PM,73.4,37.4,27,30.54,10.0,SE,4.6,19.6,N/A,,Clear,140,2013-08-27 18:14:00
12:34 PM,73.4,35.6,25,30.53,10.0,ESE,11.5,20.7,N/A,,Clear,110,2013-08-27 18:34:00
12:54 PM,75.2,32.0,21,30.52,10.0,SSE,13.8,21.9,N/A,,Clear,150,2013-08-27 18:54:00
1:14 PM,75.2,32.0,21,30.52,10.0,SE,6.9,20.7,N/A,,Clear,130,2013-08-27 19:14:00
1:34 PM,77.0,33.8,21,30.51,10.0,SE,10.4,21.9,N/A,,Clear,140,2013-08-27 19:34:00
1:54 PM,75.2,30.2,19,30.51,10.0,SSE,9.2,20.7,N/A,,Scattered Clouds,150,2013-08-27 19:54:00
2:14 PM,77.0,30.2,18,30.50,10.0,SE,13.8,18.4,N/A,,Scattered Clouds,140,2013-08-27 20:14:00
2:34 PM,75.2,30.2,19,30.49,10.0,SE,10.4,16.1,N/A,,Mostly Cloudy,130,2013-08-27 20:34:00
2:54 PM,77.0,30.2,18,30.49,10.0,SSE,12.7,18.4,N/A,,Scattered Clouds,160,2013-08-27 20:54:00
3:14 PM,75.2,32.0,21,30.48,10.0,SSE,12.7,24.2,N/A,,Scattered Clouds,160,2013-08-27 21:14:00
3:34 PM,77.0,30.2,18,30.47,10.0,SSE,12.7,16.1,N/A,Thunderstorm,Clear,150,2013-08-27 21:34:00
3:54 PM,77.0,30.2,18,30.48,10.0,SSE,10.4,21.9,N/A,,Clear,150,2013-08-27 21:54:00
4:14 PM,73.4,32.0,22,30.47,10.0,SSE,10.4,-,N/A,,Clear,160,2013-08-27 22:14:00
4:33 PM,73.4,30.2,20,30.47,10.0,SSE,9.2,-,N/A,,Scattered Clouds,150,2013-08-27 22:33:00
4:53 PM,73.4,32.0,22,30.47,10.0,SSE,3.5,-,N/A,,Scattered Clouds,160,2013-08-27 22:53:00
5:13 PM,71.6,30.2,22,30.46,10.0,SSE,8.1,-,N/A,,Clear,150,2013-08-27 23:13:00
5:34 PM,71.6,35.6,27,30.46,10.0,SSE,12.7,18.4,N/A,,Clear,150,2013-08-27 23:34:00
5:54 PM,71.6,37.4,29,30.46,10.0,SSE,18.4,24.2,N/A,,Clear,150,2013-08-27 23:54:00
6:14 PM,71.6,37.4,29,30.47,10.0,SSE,17.3,25.3,N/A,,Clear,150,2013-08-28 00:14:00
6:34 PM,69.8,37.4,31,30.47,10.0,South,12.7,20.7,N/A,Thunderstorm,Thunderstorm,170,2013-08-28 00:34:00
6:53 PM,69.8,37.4,31,30.47,10.0,SSE,16.1,24.2,N/A,,Clear,150,2013-08-28 00:53:00
7:13 PM,68.0,41.0,37,30.46,10.0,South,17.3,24.2,N/A,Thunderstorm,Clear,170,2013-08-28 01:13:00
7:34 PM,68.0,41.0,37,30.45,10.0,SSE,19.6,25.3,N/A,,Clear,150,2013-08-28 01:34:00
7:54 PM,68.0,41.0,37,30.47,10.0,SSE,18.4,25.3,N/A,,Clear,150,2013-08-28 01:54:00
8:14 PM,68.0,41.0,37,30.48,10.0,SSE,18.4,26.5,N/A,,Clear,160,2013-08-28 02:14:00
8:34 PM,66.2,41.0,40,30.49,10.0,SSE,15.0,25.3,N/A,Thunderstorm,Clear,150,2013-08-28 02:34:00
8:54 PM,66.2,42.8,43,30.50,10.0,South,17.3,23.0,N/A,,Scattered Clouds,170,2013-08-28 02:54:00
9:14 PM,66.2,42.8,43,30.51,10.0,SE,6.9,-,N/A,Thunderstorm,Mostly Cloudy,140,2013-08-28 03:14:00
9:34 PM,66.2,42.8,43,30.51,10.0,SSE,16.1,23.0,N/A,Thunderstorm,Overcast,150,2013-08-28 03:34:00
9:54 PM,64.4,42.8,45,30.51,10.0,SSE,10.4,-,N/A,,Mostly Cloudy,150,2013-08-28 03:54:00
10:14 PM,64.4,42.8,45,30.50,10.0,SSE,13.8,19.6,N/A,,Mostly Cloudy,150,2013-08-28 04:14:00
10:34 PM,64.4,42.8,45,30.51,10.0,SW,3.5,-,N/A,,Scattered Clouds,220,2013-08-28 04:34:00
10:54 PM,64.4,42.8,45,30.50,10.0,South,6.9,-,N/A,,Scattered Clouds,170,2013-08-28 04:54:00
11:13 PM,62.6,42.8,48,30.51,10.0,South,5.8,-,N/A,,Clear,170,2013-08-28 05:13:00
11:34 PM,62.6,42.8,48,30.51,10.0,Calm,Calm,-,N/A,,Clear,0,2013-08-28 05:34:00
11:54 PM,62.6,42.8,48,30.51,10.0,Calm,Calm,-,N/A,,Clear,0,2013-08-28 05:54:00